Time;durP1;ratioP1;P1;durP2;ratioP2;P2;SDS_P1;SDS_P2;PMS_P1;PMS_P2;Temp;Humidity;BMP_temperature;BMP_pressure;BME280_temperature;BME280_humidity;BME280_pressure;Samples;Min_cycle;Max_cycle;Signal;HPM_P1;HPM_P2
2022/09/02 00:00:14;;;;;;;5.28;2.00;;;;;;;16.84;77.50;99985.00;4932012;28;20047;-87
2022/09/02 00:02:39;;;;;;;4.47;1.80;;;;;;;16.81;77.35;99991.56;4944642;28;20035;-88
2022/09/02 00:05:05;;;;;;;3.97;2.00;;;;;;;16.79;78.17;99995.63;4965205;28;20073;-89
2022/09/02 00:07:31;;;;;;;2.75;1.70;;;;;;;16.79;77.48;99994.84;4951067;28;20170;-90
2022/09/02 00:09:59;;;;;;;3.55;1.80;;;;;;;16.71;77.39;99988.84;4942226;28;20421;-88
2022/09/02 00:12:25;;;;;;;5.07;1.95;;;;;;;16.69;78.36;99985.78;4936312;28;20092;-88
2022/09/02 00:14:50;;;;;;;5.68;1.98;;;;;;;16.65;77.76;99985.19;4984098;28;20508;-88
2022/09/02 00:17:16;;;;;;;4.10;1.90;;;;;;;16.59;78.40;99981.50;4966912;28;20975;-88
2022/09/02 00:19:41;;;;;;;2.08;1.55;;;;;;;16.60;78.71;99983.03;4932465;28;20050;-88
2022/09/02 00:22:08;;;;;;;6.03;1.80;;;;;;;16.54;79.02;99976.50;4971150;28;20445;-89
2022/09/02 00:24:33;;;;;;;3.53;1.95;;;;;;;16.55;78.48;99989.28;4968323;28;20039;-88
2022/09/02 00:26:59;;;;;;;6.72;2.13;;;;;;;16.48;78.86;99986.06;4966163;28;20047;-90
2022/09/02 00:29:25;;;;;;;3.42;1.92;;;;;;;16.44;79.12;99968.69;4954759;28;20569;-89
2022/09/02 00:31:51;;;;;;;2.35;1.80;;;;;;;16.45;79.84;99990.59;4975401;28;20046;-89
2022/09/02 00:34:17;;;;;;;7.93;1.98;;;;;;;16.39;80.34;99974.94;4944670;28;20424;-90
2022/09/02 00:36:43;;;;;;;5.30;2.10;;;;;;;16.31;80.21;99982.94;4969792;28;20126;-89
2022/09/02 00:39:09;;;;;;;2.72;1.75;;;;;;;16.26;81.31;99972.38;4949096;28;20089;-88
2022/09/02 00:41:36;;;;;;;3.55;1.65;;;;;;;16.22;80.33;99980.19;4955041;28;20030;-87
2022/09/02 00:44:05;;;;;;;4.32;2.08;;;;;;;16.23;80.88;99970.53;4947432;28;20066;-89
2022/09/02 00:46:31;;;;;;;4.78;1.85;;;;;;;16.20;80.61;99977.09;4936564;28;20125;-89
2022/09/02 00:49:13;;;;;;;3.60;2.10;;;;;;;16.22;80.24;99983.75;4946819;28;20610;-89
2022/09/02 00:51:46;;;;;;;3.60;1.85;;;;;;;16.24;79.73;99983.28;4969956;28;20039;-89
2022/09/02 00:54:13;;;;;;;2.90;1.90;;;;;;;16.23;79.65;99984.53;4970279;28;20409;-85
2022/09/02 00:56:40;;;;;;;4.65;1.85;;;;;;;16.21;80.12;99987.84;4970773;28;20061;-85
2022/09/02 00:59:06;;;;;;;3.90;1.80;;;;;;;16.20;80.74;99999.50;4976496;28;20583;-85
2022/09/02 01:01:32;;;;;;;4.20;1.60;;;;;;;16.19;81.25;100009.13;4955429;28;20039;-85
2022/09/02 01:03:57;;;;;;;2.72;1.77;;;;;;;16.14;80.88;99998.59;4953105;28;20630;-85
2022/09/02 01:06:24;;;;;;;4.07;2.47;;;;;;;16.14;80.64;100015.38;4972776;28;20051;-85
2022/09/02 01:09:11;;;;;;;4.72;1.98;;;;;;;16.11;81.25;100013.53;4959350;28;20043;-86
2022/09/02 01:11:43;;;;;;;2.22;1.60;;;;;;;16.11;81.35;100008.72;4971963;28;20039;-89
2022/09/02 01:14:12;;;;;;;6.13;1.90;;;;;;;16.07;80.92;100007.34;4939545;28;20046;-89
2022/09/02 01:16:52;;;;;;;2.38;1.88;;;;;;;16.08;82.17;100014.50;4939436;28;20038;-89
2022/09/02 01:19:26;;;;;;;3.92;1.80;;;;;;;16.05;82.57;100009.84;4950778;28;20700;-89
2022/09/02 01:21:53;;;;;;;4.88;1.85;;;;;;;15.97;82.21;100008.66;4979323;28;20058;-88
2022/09/02 01:24:22;;;;;;;3.45;1.77;;;;;;;15.96;82.76;100010.66;4939616;28;20492;-89
2022/09/02 01:26:51;;;;;;;3.40;1.85;;;;;;;15.85;83.09;99991.59;4969769;28;20039;-90
2022/09/02 01:29:16;;;;;;;3.75;1.83;;;;;;;15.89;83.66;100011.03;4936134;28;20113;-89
2022/09/02 01:31:42;;;;;;;3.90;1.92;;;;;;;15.83;83.41;100005.28;4954550;28;20281;-86
2022/09/02 01:34:07;;;;;;;1.88;1.60;;;;;;;15.78;84.00;100003.13;4958871;28;20043;-85
2022/09/02 01:36:38;;;;;;;2.10;1.67;;;;;;;15.73;85.12;100011.41;4944663;28;20522;-85
2022/09/02 01:39:03;;;;;;;6.30;2.10;;;;;;;15.61;85.41;100007.56;4936318;28;20501;-85
2022/09/02 01:41:29;;;;;;;3.15;2.00;;;;;;;15.55;85.70;100005.88;4957923;28;20039;-86
2022/09/02 01:43:56;;;;;;;3.22;2.08;;;;;;;15.50;86.06;100007.28;4975070;28;20826;-86
2022/09/02 01:46:22;;;;;;;4.47;2.25;;;;;;;15.46;86.68;100012.25;4969785;28;20129;-85
2022/09/02 01:48:49;;;;;;;3.78;1.85;;;;;;;15.42;86.57;100008.84;4958822;28;20038;-86
2022/09/02 01:51:18;;;;;;;4.38;2.17;;;;;;;15.36;86.59;100000.34;4974131;28;20141;-85
2022/09/02 01:53:45;;;;;;;3.22;2.00;;;;;;;15.36;87.02;100017.09;4937433;28;20174;-85
2022/09/02 01:56:11;;;;;;;4.07;1.98;;;;;;;15.25;87.34;100004.84;4953121;28;20440;-85
2022/09/02 01:58:36;;;;;;;4.35;1.80;;;;;;;15.27;87.41;100002.38;4954659;28;20055;-85
2022/09/02 02:01:02;;;;;;;4.43;2.00;;;;;;;15.28;87.39;100003.94;4977401;28;20051;-85
2022/09/02 02:03:28;;;;;;;3.33;1.88;;;;;;;15.25;87.49;100010.44;4976715;28;20122;-85
2022/09/02 02:05:55;;;;;;;2.15;1.70;;;;;;;15.27;87.59;100007.97;4967110;28;20050;-85
2022/09/02 02:08:21;;;;;;;2.60;1.65;;;;;;;15.32;87.77;100013.72;4977334;28;20035;-89
2022/09/02 02:10:48;;;;;;;3.00;2.00;;;;;;;15.31;88.03;100019.75;4955292;28;20043;-90
2022/09/02 02:13:14;;;;;;;3.03;1.90;;;;;;;15.27;88.83;100013.56;4957301;28;20038;-88
2022/09/02 02:15:42;;;;;;;4.22;1.80;;;;;;;15.32;88.63;100010.13;4954264;28;20077;-89
2022/09/02 02:18:10;;;;;;;5.93;1.80;;;;;;;15.27;89.01;100003.16;4957259;28;20558;-89
2022/09/02 02:20:36;;;;;;;4.15;1.98;;;;;;;15.33;88.70;100011.66;4954970;28;20517;-89
2022/09/02 02:23:04;;;;;;;3.28;2.03;;;;;;;15.27;89.22;99999.59;4938033;28;20070;-89
2022/09/02 02:25:30;;;;;;;3.60;1.92;;;;;;;15.32;89.18;100007.34;4961655;28;20583;-89
2022/09/02 02:27:56;;;;;;;3.40;1.73;;;;;;;15.37;88.86;100001.88;4951790;28;20043;-85
2022/09/02 02:30:22;;;;;;;3.08;2.03;;;;;;;15.33;89.63;100001.25;4968967;28;20081;-85
2022/09/02 02:32:49;;;;;;;3.05;1.88;;;;;;;15.40;88.83;100002.97;4954900;28;20499;-85
2022/09/02 02:35:18;;;;;;;2.80;1.60;;;;;;;15.43;88.99;100006.81;4959731;28;20098;-85
2022/09/02 02:37:47;;;;;;;2.80;1.60;;;;;;;15.42;89.43;100003.25;4977805;28;20413;-85
2022/09/02 02:40:15;;;;;;;4.20;2.08;;;;;;;15.47;89.76;99997.03;4962891;28;20043;-85
2022/09/02 02:42:40;;;;;;;5.40;1.85;;;;;;;15.48;88.97;100006.97;4949267;28;20093;-85
2022/09/02 02:45:08;;;;;;;2.97;1.90;;;;;;;15.52;89.19;100007.59;4971811;28;20464;-85
2022/09/02 02:47:38;;;;;;;5.15;2.00;;;;;;;15.48;88.51;100012.56;4939062;28;20547;-85
2022/09/02 02:50:06;;;;;;;3.35;1.70;;;;;;;15.50;88.86;100012.09;4952218;28;20043;-90
2022/09/02 02:52:32;;;;;;;5.85;1.92;;;;;;;15.54;89.19;100007.91;4962230;28;20139;-89
2022/09/02 02:54:57;;;;;;;3.38;1.92;;;;;;;15.47;89.74;100004.63;4961603;28;20129;-89
2022/09/02 02:57:23;;;;;;;3.40;1.90;;;;;;;15.33;91.38;100003.28;4924353;29;20067;-89
2022/09/02 02:59:49;;;;;;;2.38;1.70;;;;;;;15.29;91.75;100016.63;4928809;29;20059;-90
2022/09/02 03:02:16;;;;;;;5.65;2.03;;;;;;;15.32;91.62;100015.72;4971842;28;20043;-89
2022/09/02 03:04:44;;;;;;;3.40;1.90;;;;;;;15.20;91.76;100003.50;4973432;28;20039;-89
2022/09/02 03:07:10;;;;;;;4.40;2.50;;;;;;;15.15;92.27;100004.13;4974484;28;20046;-88
2022/09/02 03:09:35;;;;;;;4.05;1.85;;;;;;;15.15;92.64;100003.34;4962775;28;20101;-84
2022/09/02 03:12:01;;;;;;;3.92;2.00;;;;;;;15.09;93.48;100002.41;4968574;28;20078;-84
2022/09/02 03:14:28;;;;;;;3.13;1.90;;;;;;;15.08;93.98;100007.25;4942341;28;20133;-84
2022/09/02 03:16:53;;;;;;;4.18;2.30;;;;;;;15.05;93.42;100001.78;4947424;28;20122;-85
2022/09/02 03:19:19;;;;;;;4.47;2.03;;;;;;;15.04;94.44;99995.47;4938434;28;20046;-84
2022/09/02 03:21:44;;;;;;;4.25;1.90;;;;;;;15.00;94.48;99989.25;4959412;28;20117;-85
2022/09/02 03:24:13;;;;;;;4.50;2.10;;;;;;;14.96;94.70;99999.03;4962475;28;20039;-89
2022/09/02 03:26:40;;;;;;;3.85;1.90;;;;;;;14.98;94.26;100004.91;4970637;28;20119;-90
2022/09/02 03:29:06;;;;;;;5.90;2.00;;;;;;;14.92;94.03;99999.19;4950243;28;20039;-90
2022/09/02 03:31:32;;;;;;;3.15;1.90;;;;;;;14.93;93.55;99993.13;4942553;28;20074;-90
2022/09/02 03:33:59;;;;;;;3.92;2.03;;;;;;;14.89;93.92;99989.72;4961111;28;20066;-89
2022/09/02 03:36:29;;;;;;;2.50;1.80;;;;;;;14.91;94.30;99995.63;4961788;28;20046;-89
2022/09/02 03:38:56;;;;;;;5.65;2.03;;;;;;;14.84;94.99;99987.53;4926363;28;20509;-88
2022/09/02 03:41:22;;;;;;;6.93;2.13;;;;;;;14.78;94.67;99995.00;4971050;28;20409;-88
2022/09/02 03:43:48;;;;;;;4.35;2.30;;;;;;;14.70;96.46;99988.19;4938382;28;20186;-86
2022/09/02 03:46:13;;;;;;;3.13;2.10;;;;;;;14.75;96.32;99995.94;4953470;28;20125;-91
2022/09/02 03:48:40;;;;;;;5.28;2.08;;;;;;;14.63;97.14;99996.13;4940442;28;20039;-89
2022/09/02 03:51:07;;;;;;;4.20;2.10;;;;;;;14.59;97.33;99998.28;4943666;28;20050;-89
2022/09/02 03:53:33;;;;;;;4.32;2.05;;;;;;;14.55;96.89;99992.84;4924522;28;20038;-89
2022/09/02 03:56:07;;;;;;;7.18;2.75;;;;;;;14.59;97.26;100001.84;4929301;28;20069;-89
2022/09/02 03:58:35;;;;;;;3.05;2.00;;;;;;;14.57;97.24;100004.31;4951987;28;20039;-89
2022/09/02 04:01:03;;;;;;;6.45;2.17;;;;;;;14.61;97.22;100010.53;4953167;28;20043;-89
2022/09/02 04:03:29;;;;;;;3.63;2.08;;;;;;;14.58;97.69;100011.47;4967773;28;20043;-90
2022/09/02 04:05:55;;;;;;;3.47;2.20;;;;;;;14.52;98.22;100010.50;4937548;28;20070;-85
2022/09/02 04:08:24;;;;;;;3.20;2.08;;;;;;;14.51;97.51;100013.78;4961261;28;20039;-86
2022/09/02 04:10:51;;;;;;;5.00;1.92;;;;;;;14.48;97.99;100010.66;4954229;28;20042;-83
2022/09/02 04:13:18;;;;;;;5.15;2.17;;;;;;;14.51;97.55;100014.56;4959429;28;20047;-85
2022/09/02 04:15:48;;;;;;;6.93;2.22;;;;;;;14.50;97.41;100018.59;4966172;28;20092;-84
2022/09/02 04:18:16;;;;;;;2.97;2.00;;;;;;;14.53;97.30;100022.47;4930758;28;20142;-84
2022/09/02 04:20:43;;;;;;;5.18;2.00;;;;;;;14.52;98.09;100018.13;4941245;28;20039;-84
2022/09/02 04:23:08;;;;;;;3.30;1.98;;;;;;;14.54;97.77;100018.44;4940251;28;20035;-85
2022/09/02 04:25:40;;;;;;;3.95;2.05;;;;;;;14.59;97.42;100026.19;4972046;28;20544;-85
2022/09/02 04:28:07;;;;;;;6.88;2.13;;;;;;;14.55;96.95;100017.19;4952737;28;20559;-85
2022/09/02 04:30:33;;;;;;;4.32;2.20;;;;;;;14.54;96.71;100012.84;4943709;28;20117;-84
2022/09/02 04:32:59;;;;;;;3.15;2.10;;;;;;;14.56;97.53;100022.31;4966040;28;20547;-83
2022/09/02 04:35:24;;;;;;;2.78;2.00;;;;;;;14.54;97.74;100030.38;4983613;28;20035;-85
2022/09/02 04:37:50;;;;;;;3.65;1.90;;;;;;;14.57;97.83;100028.66;4955746;28;20035;-85
2022/09/02 04:40:16;;;;;;;3.47;1.98;;;;;;;14.58;97.88;100025.41;4969054;28;20483;-84
2022/09/02 04:42:42;;;;;;;5.53;2.00;;;;;;;14.62;97.03;100026.03;4970877;28;20102;-84
2022/09/02 04:45:08;;;;;;;4.05;2.00;;;;;;;14.57;97.76;100031.44;4962423;28;20635;-88
2022/09/02 04:47:36;;;;;;;3.30;1.80;;;;;;;14.58;98.18;100039.38;4968355;28;20133;-88
2022/09/02 04:50:03;;;;;;;2.58;1.88;;;;;;;14.54;97.59;100022.00;4983769;28;20069;-88
2022/09/02 04:52:32;;;;;;;3.15;1.90;;;;;;;14.56;97.46;100036.25;4972165;28;20039;-90
2022/09/02 04:54:58;;;;;;;3.53;2.00;;;;;;;14.62;97.05;100033.63;4945664;28;20039;-90
2022/09/02 04:57:25;;;;;;;6.68;2.00;;;;;;;14.64;97.10;100043.09;4990223;28;20042;-89
2022/09/02 04:59:51;;;;;;;4.20;2.13;;;;;;;14.67;96.61;100027.44;4949440;28;20053;-85
2022/09/02 05:02:19;;;;;;;2.58;2.03;;;;;;;14.71;96.91;100040.00;4963587;28;20039;-85
2022/09/02 05:04:48;;;;;;;5.25;1.83;;;;;;;14.75;95.48;100040.63;4958623;28;20066;-85
2022/09/02 05:07:24;;;;;;;4.32;1.88;;;;;;;14.76;94.97;100036.56;4969121;28;20076;-85
2022/09/02 05:09:56;;;;;;;5.03;1.90;;;;;;;14.81;95.36;100037.97;4974178;28;20043;-84
2022/09/02 05:12:26;;;;;;;4.15;2.10;;;;;;;14.85;94.85;100039.38;4940642;28;20065;-85
2022/09/02 05:14:58;;;;;;;4.07;1.92;;;;;;;14.89;94.24;100034.41;4954184;28;20042;-85
2022/09/02 05:17:23;;;;;;;3.67;1.90;;;;;;;14.94;94.15;100033.00;4985302;28;20125;-84
2022/09/02 05:19:49;;;;;;;4.03;1.95;;;;;;;14.95;94.44;100037.34;4941390;28;20134;-91
2022/09/02 05:22:15;;;;;;;3.58;1.83;;;;;;;15.04;94.27;100028.19;4947463;28;20276;-85
2022/09/02 05:24:42;;;;;;;2.33;1.60;;;;;;;15.13;93.03;100037.31;4948756;28;20042;-85
2022/09/02 05:27:12;;;;;;;8.68;2.17;;;;;;;15.22;92.30;100042.91;4946103;28;20073;-85
2022/09/02 05:29:38;;;;;;;3.75;2.03;;;;;;;15.28;93.17;100031.88;4957338;28;20046;-85
2022/09/02 05:32:07;;;;;;;2.05;1.67;;;;;;;15.39;92.38;100040.53;4965329;28;20039;-86
2022/09/02 05:34:35;;;;;;;3.80;1.90;;;;;;;15.40;91.80;100033.72;4971539;28;20043;-86
2022/09/02 05:37:02;;;;;;;5.70;1.67;;;;;;;15.47;91.60;100043.78;4952979;28;20046;-87
2022/09/02 05:39:30;;;;;;;2.47;1.50;;;;;;;15.49;91.54;100041.28;4933764;28;20039;-82
2022/09/02 05:41:56;;;;;;;2.85;1.77;;;;;;;15.45;90.23;100035.84;4950545;28;20039;-86
2022/09/02 05:44:22;;;;;;;5.65;1.88;;;;;;;15.45;91.26;100044.22;4960699;28;20085;-86
2022/09/02 05:46:48;;;;;;;5.43;1.65;;;;;;;15.52;91.38;100040.38;4956025;28;20054;-86
2022/09/02 05:49:16;;;;;;;7.75;2.05;;;;;;;15.48;91.47;100043.31;4933191;29;20079;-86
2022/09/02 05:52:04;;;;;;;4.43;1.73;;;;;;;15.50;91.16;100042.84;4966133;28;20126;-85
2022/09/02 05:54:37;;;;;;;2.60;1.75;;;;;;;15.57;91.57;100048.13;4956035;28;20040;-84
2022/09/02 05:57:10;;;;;;;4.43;1.90;;;;;;;15.63;91.47;100043.44;4984881;28;21028;-91
2022/09/02 05:59:41;;;;;;;4.88;2.10;;;;;;;15.63;90.75;100043.44;4967101;28;20046;-91
2022/09/02 06:02:11;;;;;;;3.17;1.70;;;;;;;15.66;91.38;100039.69;4926816;28;20457;-91
2022/09/02 06:04:43;;;;;;;3.22;1.83;;;;;;;15.73;90.30;100040.13;4935739;29;20043;-91
2022/09/02 06:07:10;;;;;;;3.45;1.80;;;;;;;15.76;90.83;100039.22;4931765;28;20109;-90
2022/09/02 06:09:36;;;;;;;4.00;2.00;;;;;;;15.73;90.38;100040.13;4963922;28;20050;-89
2022/09/02 06:12:02;;;;;;;3.53;1.58;;;;;;;15.75;88.94;100036.88;4933846;28;20043;-92
2022/09/02 06:14:30;;;;;;;2.78;1.90;;;;;;;15.73;89.29;100042.94;4950776;28;20484;-91
2022/09/02 06:16:57;;;;;;;2.83;1.80;;;;;;;15.78;90.05;100047.88;4957858;28;20486;-90
2022/09/02 06:19:34;;;;;;;3.88;1.70;;;;;;;15.81;89.76;100046.19;4955209;28;20054;-90
2022/09/02 06:22:02;;;;;;;3.42;1.88;;;;;;;15.92;89.94;100040.06;4964548;28;20035;-91
2022/09/02 06:24:29;;;;;;;4.88;1.98;;;;;;;15.99;90.20;100046.09;4962936;28;20035;-90
2022/09/02 06:26:57;;;;;;;4.50;1.80;;;;;;;16.01;89.49;100048.41;4962743;28;20054;-90
2022/09/02 06:29:24;;;;;;;5.97;2.10;;;;;;;16.03;90.12;100029.13;4964197;28;20039;-90
2022/09/02 06:31:52;;;;;;;5.70;1.77;;;;;;;16.06;88.90;100044.94;4962219;28;20059;-90
2022/09/02 06:34:21;;;;;;;4.72;2.00;;;;;;;16.14;89.46;100040.56;4949506;28;20043;-91
2022/09/02 06:36:49;;;;;;;3.22;1.80;;;;;;;16.16;87.40;100024.06;4966884;28;20118;-90
2022/09/02 06:39:18;;;;;;;4.80;1.80;;;;;;;16.17;86.32;100034.81;4939010;28;20055;-88
2022/09/02 06:41:45;;;;;;;2.90;1.77;;;;;;;16.11;86.59;100041.50;4978064;28;20523;-89
2022/09/02 06:44:12;;;;;;;3.13;1.85;;;;;;;16.14;86.32;100040.56;4947943;28;20117;-89
2022/09/02 06:46:41;;;;;;;4.50;1.80;;;;;;;16.25;86.36;100040.81;4932832;28;20086;-91
2022/09/02 06:49:10;;;;;;;4.18;1.90;;;;;;;16.37;86.58;100042.63;4947487;28;20049;-90
2022/09/02 06:51:39;;;;;;;2.53;1.60;;;;;;;16.42;86.76;100033.53;4964829;28;20046;-90
2022/09/02 06:54:08;;;;;;;4.35;1.80;;;;;;;16.52;86.41;100037.84;4950189;28;20035;-91
2022/09/02 06:56:36;;;;;;;3.33;1.80;;;;;;;16.66;84.98;100039.91;4932997;29;20095;-88
2022/09/02 06:59:03;;;;;;;3.58;1.80;;;;;;;16.79;84.84;100040.44;4987395;28;20568;-90
2022/09/02 07:01:41;;;;;;;2.95;1.88;;;;;;;16.89;82.81;100048.78;4958042;28;20051;-89
2022/09/02 07:06:53;;;;;;;6.32;1.60;;;;;;;16.90;82.22;100050.34;4965375;28;20094;-90
2022/09/02 07:09:22;;;;;;;3.95;1.75;;;;;;;16.98;82.84;100046.69;4938654;28;20035;-90
2022/09/02 07:11:50;;;;;;;4.68;2.17;;;;;;;17.07;81.68;100040.97;4970143;28;20077;-90
2022/09/02 07:14:19;;;;;;;3.55;2.00;;;;;;;17.04;81.01;100043.97;4953695;28;20039;-90
2022/09/02 07:16:51;;;;;;;4.05;2.15;;;;;;;17.09;81.65;100049.69;4940816;28;20049;-89
2022/09/02 07:19:21;;;;;;;5.63;1.98;;;;;;;17.23;81.31;100045.34;4950266;28;20120;-89
2022/09/02 07:21:48;;;;;;;2.78;1.65;;;;;;;17.42;79.83;100057.16;4946939;28;20071;-89
2022/09/02 07:24:14;;;;;;;4.30;1.75;;;;;;;17.59;81.71;100049.84;4936841;28;20467;-89
2022/09/02 07:26:42;;;;;;;3.40;1.90;;;;;;;17.77;80.04;100055.22;4959949;28;20097;-91
2022/09/02 07:29:09;;;;;;;2.13;1.70;;;;;;;17.88;79.76;100054.59;4930066;28;20516;-90
2022/09/02 07:31:37;;;;;;;3.47;1.73;;;;;;;17.82;77.83;100056.56;4962866;28;20046;-90
2022/09/02 07:34:04;;;;;;;3.33;1.80;;;;;;;17.73;79.22;100053.84;4956861;28;20065;-91
2022/09/02 07:36:30;;;;;;;3.72;1.70;;;;;;;17.86;81.40;100051.53;4938618;28;20178;-85
2022/09/02 07:38:57;;;;;;;3.42;1.85;;;;;;;17.94;79.56;100052.66;4973258;28;20137;-85
2022/09/02 07:41:23;;;;;;;3.03;1.60;;;;;;;17.95;77.68;100055.00;4952787;28;20031;-85
2022/09/02 07:43:49;;;;;;;4.03;1.90;;;;;;;17.96;77.93;100058.56;4926198;29;20050;-85
2022/09/02 07:46:15;;;;;;;4.90;1.70;;;;;;;18.01;77.16;100055.84;4943726;28;20047;-85
2022/09/02 07:48:41;;;;;;;2.83;1.80;;;;;;;18.15;77.22;100054.28;4930652;28;20061;-85
2022/09/02 07:51:07;;;;;;;3.40;1.73;;;;;;;18.15;77.27;100060.66;4964598;28;20077;-85
2022/09/02 07:53:34;;;;;;;3.88;2.00;;;;;;;18.12;75.33;100060.84;4938316;28;20547;-90
2022/09/02 07:56:00;;;;;;;2.22;1.50;;;;;;;18.10;75.38;100054.94;4968912;28;20811;-89
2022/09/02 07:58:27;;;;;;;4.40;1.90;;;;;;;18.06;77.44;100060.78;4957716;28;20043;-90
2022/09/02 08:00:57;;;;;;;4.65;2.00;;;;;;;18.22;76.68;100062.28;4942143;28;20039;-90
2022/09/02 08:03:25;;;;;;;5.28;2.10;;;;;;;18.27;77.34;100055.19;4947555;28;20519;-90
2022/09/02 08:05:53;;;;;;;2.72;1.70;;;;;;;18.36;76.66;100055.81;4961473;28;20402;-91
2022/09/02 08:08:19;;;;;;;5.57;1.80;;;;;;;18.31;76.46;100059.34;4953250;28;20130;-90
2022/09/02 08:10:46;;;;;;;3.17;1.73;;;;;;;18.33;78.26;100062.44;4962362;28;20046;-85
2022/09/02 08:13:12;;;;;;;2.53;1.73;;;;;;;18.31;77.19;100061.38;4973985;28;20061;-82
2022/09/02 08:15:38;;;;;;;4.82;1.83;;;;;;;18.31;77.20;100059.34;4923273;28;20043;-83
2022/09/02 08:18:05;;;;;;;4.07;1.95;;;;;;;18.37;76.51;100060.19;4937752;28;20047;-85
2022/09/02 08:20:31;;;;;;;5.65;1.90;;;;;;;18.53;75.90;100059.66;4934868;28;20094;-83
2022/09/02 08:22:57;;;;;;;2.60;1.60;;;;;;;18.53;76.57;100076.50;4968725;28;20039;-83
2022/09/02 08:25:23;;;;;;;2.92;1.80;;;;;;;18.59;76.20;100062.56;4955345;28;20394;-83
2022/09/02 08:27:49;;;;;;;4.75;1.83;;;;;;;18.53;75.22;100068.09;4961905;28;20594;-84
2022/09/02 08:30:16;;;;;;;5.05;1.70;;;;;;;18.53;73.69;100051.22;4945740;28;20138;-85
2022/09/02 08:32:42;;;;;;;4.50;2.00;;;;;;;18.63;73.84;100058.28;4939969;28;20049;-84
2022/09/02 08:35:08;;;;;;;2.22;1.58;;;;;;;18.57;78.01;100057.41;4966396;28;20039;-85
2022/09/02 08:37:36;;;;;;;4.60;1.80;;;;;;;18.60;75.06;100059.22;4972854;28;20047;-86
2022/09/02 08:40:05;;;;;;;5.47;1.80;;;;;;;18.51;73.33;100056.56;4945681;28;20457;-83
2022/09/02 08:42:45;;;;;;;6.63;2.00;;;;;;;18.68;72.23;100056.03;4962638;28;20051;-83
2022/09/02 08:45:16;;;;;;;4.63;1.73;;;;;;;18.89;75.08;100068.78;4969668;28;20043;-83
2022/09/02 08:47:45;;;;;;;3.90;1.83;;;;;;;19.07;73.60;100052.38;4962538;28;20051;-83
2022/09/02 08:50:18;;;;;;;4.20;2.10;;;;;;;19.10;74.67;100047.81;4938343;28;20078;-88
2022/09/02 08:53:00;;;;;;;3.83;1.85;;;;;;;19.24;74.98;100061.00;4961700;28;20050;-83
2022/09/02 08:55:38;;;;;;;4.97;2.08;;;;;;;19.30;74.13;100056.19;4964709;28;20050;-84
2022/09/02 08:58:04;;;;;;;2.70;1.65;;;;;;;19.32;73.94;100056.47;4934655;28;20136;-84
2022/09/02 09:00:35;;;;;;;3.28;1.73;;;;;;;19.32;74.73;100056.47;4965836;28;20086;-84
2022/09/02 09:03:20;;;;;;;3.38;1.75;;;;;;;19.14;75.14;100044.75;4935436;28;20085;-84
2022/09/02 09:06:07;;;;;;;5.25;2.00;;;;;;;19.26;75.26;100064.06;4934383;28;20066;-83
2022/09/02 09:08:51;;;;;;;4.88;1.95;;;;;;;19.32;74.27;100050.84;4968262;28;20046;-90
2022/09/02 09:11:47;;;;;;;4.30;1.70;;;;;;;19.53;73.17;100055.16;4956615;28;20126;-84
2022/09/02 09:14:41;;;;;;;2.97;1.90;;;;;;;19.73;74.06;100048.69;4952448;28;20109;-83
2022/09/02 09:17:25;;;;;;;5.72;1.90;;;;;;;19.89;72.11;100050.06;4987679;28;20055;-85
2022/09/02 09:19:53;;;;;;;6.90;1.83;;;;;;;19.57;73.33;100054.94;4957644;28;20043;-84
2022/09/02 09:22:30;;;;;;;4.97;2.20;;;;;;;19.77;73.05;100056.91;4932657;28;20075;-85
2022/09/02 09:24:56;;;;;;;4.25;1.85;;;;;;;19.90;71.87;100045.97;4948471;28;20686;-84
2022/09/02 09:27:22;;;;;;;3.45;1.70;;;;;;;19.56;72.04;100059.03;4964811;28;20034;-89
2022/09/02 09:29:49;;;;;;;3.78;1.92;;;;;;;19.68;72.39;100049.41;4965122;28;20419;-84
2022/09/02 09:32:34;;;;;;;4.85;1.88;;;;;;;19.94;71.25;100057.78;4978716;28;20098;-84
2022/09/02 09:35:11;;;;;;;3.38;2.00;;;;;;;20.03;68.63;100046.31;4950828;28;20078;-85
2022/09/02 09:37:38;;;;;;;3.88;1.80;;;;;;;20.11;69.33;100050.22;4945381;28;20055;-85
2022/09/02 09:40:22;;;;;;;3.25;1.63;;;;;;;20.14;70.27;100045.63;4958962;28;20038;-86
2022/09/02 09:43:11;;;;;;;4.22;1.77;;;;;;;20.23;69.20;100056.69;4978652;28;20047;-83
2022/09/02 09:45:37;;;;;;;4.28;1.63;;;;;;;19.99;69.16;100048.59;4987852;28;20050;-84
2022/09/02 09:48:18;;;;;;;4.07;1.70;;;;;;;20.10;67.92;100051.47;4957358;28;20388;-84
2022/09/02 09:50:48;;;;;;;2.80;1.80;;;;;;;20.07;67.29;100058.13;4948681;28;20074;-84
2022/09/02 09:53:20;;;;;;;3.33;1.90;;;;;;;20.00;66.35;100061.41;4963725;28;20046;-84
2022/09/02 09:56:05;;;;;;;2.80;1.67;;;;;;;20.12;65.85;100054.56;4950311;28;20035;-84
2022/09/02 09:58:38;;;;;;;3.83;1.63;;;;;;;20.25;66.37;100046.47;4971745;28;20415;-84
2022/09/02 10:01:16;;;;;;;;;;;;;;;20.32;65.06;100040.38;4968159;28;20055;-84
2022/09/02 10:03:47;;;;;;;3.33;1.80;;;;;;;20.39;64.75;100039.91;4962573;28;20017;-84
2022/09/02 10:06:38;;;;;;;3.97;1.75;;;;;;;20.67;65.17;100044.88;4940019;28;20061;-84
2022/09/02 10:09:05;;;;;;;3.88;1.92;;;;;;;20.53;64.37;100037.41;4949426;28;20035;-89
2022/09/02 10:11:33;;;;;;;3.42;1.80;;;;;;;20.92;64.20;100027.03;4974223;28;20512;-89
2022/09/02 10:14:01;;;;;;;5.53;1.90;;;;;;;21.20;60.93;100033.53;4969957;28;20170;-89
2022/09/02 10:16:33;;;;;;;3.88;1.67;;;;;;;21.36;60.01;100040.47;4937788;28;20122;-89
2022/09/02 10:19:18;;;;;;;5.45;1.65;;;;;;;21.20;60.28;100021.47;4978608;28;20049;-88
2022/09/02 10:22:02;;;;;;;2.80;1.70;;;;;;;21.24;59.63;100033.28;4969060;28;20082;-88
2022/09/02 10:24:59;;;;;;;3.05;1.73;;;;;;;21.51;58.90;100040.25;4982444;28;20050;-84
2022/09/02 10:27:35;;;;;;;3.08;1.70;;;;;;;21.54;60.83;100037.19;4943464;28;20175;-84
2022/09/02 10:30:21;;;;;;;3.83;1.60;;;;;;;21.81;57.93;100029.97;4944265;29;20556;-84
2022/09/02 10:33:05;;;;;;;3.63;1.80;;;;;;;21.72;56.39;100027.41;4963365;28;20055;-84
2022/09/02 10:35:36;;;;;;;2.58;1.60;;;;;;;21.81;53.94;100029.97;4975743;28;20043;-84
2022/09/02 10:38:21;;;;;;;3.03;1.77;;;;;;;22.17;53.03;100028.13;4975638;28;20085;-84
2022/09/02 10:40:55;;;;;;;2.35;1.80;;;;;;;22.55;51.78;100018.00;4970746;28;20138;-84
2022/09/02 10:43:47;;;;;;;4.40;1.77;;;;;;;23.01;51.32;100020.88;4984211;28;20405;-84
2022/09/02 10:46:17;;;;;;;3.10;1.63;;;;;;;23.19;46.35;100008.94;4983979;28;20043;-89
2022/09/02 10:49:39;;;;;;;2.45;1.60;;;;;;;23.34;48.80;100016.28;4976876;28;20496;-89
2022/09/02 10:52:11;;;;;;;3.35;1.63;;;;;;;23.53;48.32;100003.81;4923245;29;20040;-90
2022/09/02 10:54:59;;;;;;;4.38;1.77;;;;;;;23.53;44.67;100003.06;4930813;29;20146;-89
2022/09/02 10:57:30;;;;;;;4.15;2.00;;;;;;;23.73;46.96;99999.78;4953249;28;20051;-90
2022/09/02 11:00:07;;;;;;;2.35;1.50;;;;;;;23.93;45.75;99988.00;4947091;28;20039;-90
2022/09/02 11:02:39;;;;;;;4.50;1.70;;;;;;;23.92;48.92;99986.47;4979161;28;20046;-84
2022/09/02 11:05:15;;;;;;;3.08;1.88;;;;;;;23.91;49.38;99989.81;4938858;28;20102;-84
2022/09/02 11:08:16;;;;;;;3.55;1.90;;;;;;;24.05;47.19;99986.59;4966214;28;20055;-84
2022/09/02 11:11:06;;;;;;;3.22;1.83;;;;;;;23.76;49.33;99987.38;4917073;29;20047;-84
2022/09/02 11:13:50;;;;;;;2.50;1.60;;;;;;;24.42;50.77;99990.81;4943693;28;20519;-84
2022/09/02 11:16:21;;;;;;;4.13;1.90;;;;;;;24.28;47.19;99987.13;4964021;28;20046;-84
2022/09/02 11:19:05;;;;;;;5.55;1.80;;;;;;;23.94;46.85;99986.69;4930341;28;20129;-85
2022/09/02 11:21:39;;;;;;;4.78;2.15;;;;;;;23.72;46.10;99992.56;4980807;28;20554;-89
2022/09/02 11:24:04;;;;;;;;;;;;;;;23.57;46.95;99995.81;4976983;28;20590;-90
2022/09/02 11:26:37;;;;;;;4.07;1.90;;;;;;;23.39;47.00;99982.28;4971769;28;19918;-90
2022/09/02 11:29:11;;;;;;;2.47;1.90;;;;;;;23.47;48.26;99988.16;4964065;28;20493;-90
2022/09/02 11:31:37;;;;;;;5.78;2.22;;;;;;;23.57;50.25;99986.53;4958122;28;20042;-89
2022/09/02 11:34:35;;;;;;;3.35;1.80;;;;;;;23.95;50.40;99993.88;4964283;28;20042;-90
2022/09/02 11:37:03;;;;;;;2.85;1.85;;;;;;;23.97;49.04;99988.47;4978232;28;20062;-89
2022/09/02 11:39:36;;;;;;;3.85;2.28;;;;;;;23.86;47.15;99985.72;4978451;28;20524;-90
2022/09/02 11:42:30;;;;;;;3.10;2.00;;;;;;;23.98;45.00;99986.41;4942517;28;20035;-90